Main page
METAR-TAF:

METAR-TAF

Airports :

Yeovilton, England

RNAS Yeovilton (HMS Heron)

latitude: 51-00N, longitude: 002-38W, elevation: 23 m

Current weather observation

The report was made 35 minutes ago, at 22:50 UTC
Wind 7 kt from the South
Temperature 16°C
Humidity 88%
Pressure 1011 hPa
Visibility 10 km or more

METAR: EGDY 172250Z AUTO 19007KT 9999 FEW080/// 16/14 Q1011

Time: 00:25 (23:25 UTC)

Forecast

The report was made 10 hours and 6 minutes ago, at 13:19 UTC
Forecast valid from 17 at 15 UTC to 17 at 24 UTC
Wind 10 kt from the West/Southwest with gusts up to 20 kt
Visibility 10 km or more
Broken clouds at a height of 3000 ft
Temporary
from 17 at 16 UTC to 17 at 20 UTC
Visibility: 7000 m
Scattered clouds at a height of 1800 ft
light rain showers

TAF: EGDY 171319Z 1715/1724 24010G20KT 9999 BKN030 TEMPO 1716/1720 7000 -SHRA SCT018

Weather observations and forecasts of more than 4000 airports (METAR and TAF reports).

The available stations are represented by yellow and red dots on the map.

Hover mouse over dot to see the name of the station.

Then click to see weather observations and forecasts.

To change the map : click on the green buttons with a black cross to zoom in, on the green button with a dash to zoom out, or on the green arrows for adjacent maps.


METAR-TAF: